createdAt,value
2022-12-23T00:00:43.738Z,48.10
2022-12-23T00:03:27.454Z,42.80
2022-12-23T00:05:54.255Z,41.40
2022-12-23T00:08:21.785Z,43.00
2022-12-23T00:10:50.429Z,42.10
2022-12-23T00:13:36.753Z,47.50
2022-12-23T00:16:10.291Z,43.70
2022-12-23T00:18:38.029Z,48.40
2022-12-23T00:21:09.111Z,48.40
2022-12-23T00:23:40.297Z,42.10
2022-12-23T00:26:12.352Z,47.30
2022-12-23T00:28:39.133Z,49.20
2022-12-23T00:31:07.299Z,46.10
2022-12-23T00:33:45.297Z,46.40
2022-12-23T00:36:22.723Z,47.20
2022-12-23T00:39:08.886Z,46.70
2022-12-23T00:42:07.814Z,52.70
2022-12-23T00:44:34.513Z,47.00
2022-12-23T00:47:01.319Z,52.40
2022-12-23T00:49:43.357Z,53.30
2022-12-23T00:52:13.208Z,49.20
2022-12-23T00:54:40.116Z,50.40
2022-12-23T00:57:07.163Z,46.40
2022-12-23T00:59:36.393Z,48.70
2022-12-23T01:02:21.912Z,58.10
2022-12-23T01:05:07.566Z,48.20
2022-12-23T01:07:34.451Z,53.20
2022-12-23T01:10:01.303Z,49.20
2022-12-23T01:12:28.261Z,55.00
2022-12-23T01:14:55.125Z,54.20
2022-12-23T01:17:21.867Z,52.10
2022-12-23T01:19:48.855Z,59.00
2022-12-23T01:22:15.730Z,51.40
2022-12-23T01:24:42.548Z,56.20
2022-12-23T01:27:10.548Z,57.90
2022-12-23T01:29:40.321Z,56.00
2022-12-23T01:32:09.806Z,59.70
2022-12-23T01:34:37.695Z,55.70
2022-12-23T01:37:05.817Z,54.90
2022-12-23T01:39:32.571Z,55.80
2022-12-23T01:42:17.789Z,53.80
2022-12-23T01:44:56.088Z,53.90
2022-12-23T01:47:29.069Z,51.30
2022-12-23T01:50:07.232Z,52.60
2022-12-23T01:52:39.449Z,55.20
2022-12-23T01:55:08.511Z,58.10
2022-12-23T01:57:39.623Z,56.90
2022-12-23T02:00:26.745Z,52.00
2022-12-23T02:03:14.756Z,49.90
2022-12-23T02:05:45.345Z,53.30
2022-12-23T02:11:32.284Z,48.80
2022-12-23T02:14:56.022Z,47.90
2022-12-23T02:17:32.098Z,56.40
2022-12-23T02:20:03.100Z,51.70
2022-12-23T02:22:56.115Z,50.30
2022-12-23T02:25:45.612Z,52.70
2022-12-23T02:28:54.138Z,51.90
2022-12-23T02:31:27.272Z,51.70
2022-12-23T02:34:15.025Z,56.30
2022-12-23T02:37:04.555Z,57.80
2022-12-23T02:39:54.006Z,57.60
2022-12-23T02:42:25.823Z,60.90
2022-12-23T02:45:19.270Z,60.30
2022-12-23T02:47:58.871Z,57.00
2022-12-23T02:50:31.809Z,58.40
2022-12-23T02:53:06.314Z,58.00
2022-12-23T02:55:36.286Z,55.20
2022-12-23T02:58:09.282Z,55.10
2022-12-23T03:00:40.041Z,52.00
2022-12-23T03:05:42.208Z,48.60
2022-12-23T03:08:23.291Z,51.80
2022-12-23T03:10:59.040Z,46.20
2022-12-23T03:13:36.786Z,48.40
2022-12-23T03:16:24.869Z,45.60
2022-12-23T03:19:07.008Z,47.80
2022-12-23T03:22:08.355Z,49.70
2022-12-23T03:24:43.492Z,46.10
2022-12-23T03:27:14.981Z,44.50
2022-12-23T03:29:54.099Z,45.60
2022-12-23T03:32:21.740Z,43.00
2022-12-23T03:34:52.759Z,46.70
2022-12-23T03:37:22.000Z,47.80
2022-12-23T03:40:15.450Z,53.70
2022-12-23T03:42:46.363Z,50.10
2022-12-23T03:45:40.791Z,49.00
2022-12-23T03:48:33.647Z,47.40
2022-12-23T03:51:17.639Z,53.00
2022-12-23T03:54:10.005Z,54.00
2022-12-23T03:56:49.068Z,48.50
2022-12-23T03:59:32.348Z,54.70
2022-12-23T04:02:15.202Z,54.10
2022-12-23T04:05:19.783Z,52.40
2022-12-23T04:07:55.886Z,56.00
2022-12-23T04:10:24.431Z,53.50
2022-12-23T04:12:52.105Z,57.70
2022-12-23T04:15:21.725Z,53.10
2022-12-23T04:17:50.321Z,57.00
2022-12-23T04:20:17.532Z,52.30
2022-12-23T04:22:44.368Z,50.60
2022-12-23T04:25:13.256Z,54.00
2022-12-23T04:27:40.416Z,51.70
2022-12-23T04:30:09.322Z,49.10
2022-12-23T04:32:36.509Z,50.70
2022-12-23T04:35:04.179Z,48.80
2022-12-23T04:37:30.958Z,54.80
2022-12-23T04:39:57.808Z,51.30
2022-12-23T04:42:24.634Z,48.40
2022-12-23T04:44:51.268Z,45.40
2022-12-23T04:47:18.826Z,51.50
2022-12-23T04:49:46.999Z,50.20
2022-12-23T04:52:13.874Z,49.00
2022-12-23T04:54:45.824Z,48.30
2022-12-23T04:57:14.642Z,48.80
2022-12-23T04:59:42.011Z,46.90
2022-12-23T05:02:09.677Z,43.10
2022-12-23T05:04:36.859Z,45.30
2022-12-23T05:07:03.757Z,54.90
2022-12-23T05:09:30.645Z,57.10
2022-12-23T05:12:01.741Z,57.20
2022-12-23T05:14:28.550Z,58.10
2022-12-23T05:17:03.579Z,50.60
2022-12-23T05:19:33.922Z,45.20
2022-12-23T05:22:00.983Z,49.30
2022-12-23T05:24:30.567Z,48.10
2022-12-23T05:27:00.717Z,47.20
2022-12-23T05:29:34.739Z,45.60
2022-12-23T05:32:02.207Z,46.00
2022-12-23T05:34:29.114Z,50.30
2022-12-23T05:36:56.105Z,50.30
2022-12-23T05:39:25.633Z,46.20
2022-12-23T05:41:55.017Z,50.10
2022-12-23T05:44:24.289Z,48.80
2022-12-23T05:46:58.690Z,52.20
2022-12-23T05:49:26.169Z,43.00
2022-12-23T05:51:55.015Z,47.30
2022-12-23T05:54:21.795Z,47.60
2022-12-23T05:56:49.132Z,49.50
2022-12-23T05:59:15.991Z,52.20
2022-12-23T06:01:42.929Z,64.40
2022-12-23T06:04:10.090Z,66.90
2022-12-23T06:06:38.067Z,64.70
2022-12-23T06:09:05.173Z,63.70
2022-12-23T06:11:32.145Z,60.20
2022-12-23T06:13:58.992Z,66.50
2022-12-23T06:16:25.974Z,59.30
2022-12-23T06:18:56.228Z,66.90
2022-12-23T06:21:25.146Z,66.90
2022-12-23T06:23:52.890Z,64.10
2022-12-23T06:26:20.666Z,58.10
2022-12-23T06:28:48.153Z,57.00
2022-12-23T06:31:15.338Z,54.50
2022-12-23T06:33:42.145Z,60.80
2022-12-23T06:36:09.112Z,80.20
2022-12-23T06:38:36.010Z,83.50
2022-12-23T06:41:02.991Z,83.80
2022-12-23T06:43:29.830Z,71.10
2022-12-23T06:45:56.681Z,66.60
2022-12-23T06:48:23.781Z,68.90
2022-12-23T06:50:50.588Z,64.60
2022-12-23T06:53:17.507Z,60.20
2022-12-23T06:55:45.007Z,71.30
2022-12-23T06:58:11.975Z,66.60
2022-12-23T07:00:38.811Z,69.20
2022-12-23T07:03:06.284Z,62.50
2022-12-23T07:05:37.605Z,64.60
2022-12-23T07:08:05.160Z,80.40
2022-12-23T07:10:34.282Z,82.20
2022-12-23T07:13:02.120Z,80.30
2022-12-23T07:15:28.811Z,85.90
2022-12-23T07:17:55.666Z,92.00
2022-12-23T07:20:22.552Z,103.90
2022-12-23T07:22:49.928Z,113.70
2022-12-23T07:25:16.781Z,115.00
2022-12-23T07:27:43.882Z,120.00
2022-12-23T07:30:11.088Z,117.00
2022-12-23T07:32:37.903Z,113.40
2022-12-23T07:35:07.527Z,103.90
2022-12-23T07:37:34.838Z,87.70
2022-12-23T07:40:08.335Z,81.60
2022-12-23T07:42:46.822Z,84.50
2022-12-23T07:45:25.504Z,77.70
2022-12-23T07:47:54.029Z,81.50
2022-12-23T07:50:21.929Z,92.20
2022-12-23T07:52:52.216Z,79.80
2022-12-23T07:55:23.358Z,76.30
2022-12-23T07:57:52.108Z,69.40
2022-12-23T08:00:20.650Z,67.90
2022-12-23T08:02:47.955Z,63.00
2022-12-23T08:05:15.904Z,59.60
2022-12-23T08:07:49.525Z,48.80
2022-12-23T08:10:17.042Z,45.60
2022-12-23T08:12:45.849Z,43.80
2022-12-23T08:15:20.923Z,48.60
2022-12-23T08:18:06.096Z,39.00
2022-12-23T08:20:35.288Z,37.50
2022-12-23T08:23:24.687Z,37.50
2022-12-23T08:26:33.043Z,36.40
2022-12-23T08:32:09.372Z,39.20
2022-12-23T08:34:39.388Z,38.20
2022-12-23T08:37:06.322Z,38.30
2022-12-23T08:39:33.373Z,36.10
2022-12-23T08:42:00.788Z,42.90
2022-12-23T08:44:33.207Z,46.30
2022-12-23T08:47:01.762Z,45.20
2022-12-23T08:49:28.823Z,44.50
2022-12-23T08:51:55.748Z,41.10
2022-12-23T08:54:24.725Z,44.90
2022-12-23T08:56:56.330Z,39.70
2022-12-23T08:59:25.663Z,42.20
2022-12-23T09:01:52.549Z,42.20
2022-12-23T09:04:23.808Z,43.70
2022-12-23T09:06:53.171Z,36.80
2022-12-23T09:09:20.353Z,42.90
2022-12-23T09:11:51.631Z,43.40
2022-12-23T09:14:18.815Z,41.20
2022-12-23T09:16:51.299Z,37.40
2022-12-23T09:19:25.922Z,37.60
2022-12-23T09:21:53.231Z,39.40
2022-12-23T09:24:32.051Z,38.40
2022-12-23T09:27:06.370Z,34.50
2022-12-23T09:29:33.423Z,35.10
2022-12-23T09:32:28.102Z,38.90
2022-12-23T09:34:57.683Z,35.20
2022-12-23T09:37:31.446Z,35.70
2022-12-23T09:40:02.752Z,37.40
2022-12-23T09:42:35.876Z,36.90
2022-12-23T09:46:06.117Z,38.30
2022-12-23T09:48:47.105Z,41.50
2022-12-23T09:51:19.226Z,44.40
2022-12-23T09:54:17.192Z,40.70
2022-12-23T09:56:53.588Z,35.70
2022-12-23T09:59:50.812Z,36.60
2022-12-23T10:02:29.952Z,38.50
2022-12-23T10:05:19.289Z,35.80
2022-12-23T10:08:22.952Z,33.80
2022-12-23T10:11:16.645Z,39.00
2022-12-23T10:14:20.551Z,42.20
2022-12-23T10:16:59.532Z,37.80
2022-12-23T10:19:42.701Z,34.10
2022-12-23T10:22:28.710Z,34.00
2022-12-23T10:25:01.524Z,41.20
2022-12-23T10:27:49.998Z,34.10
2022-12-23T10:33:21.389Z,43.80
2022-12-23T10:36:10.791Z,42.90
2022-12-23T10:38:54.007Z,46.50
2022-12-23T10:41:23.675Z,36.50
2022-12-23T10:44:18.191Z,40.50
2022-12-23T10:47:00.314Z,42.10
2022-12-23T10:49:42.564Z,39.60
2022-12-23T10:52:15.987Z,45.00
2022-12-23T10:54:46.619Z,37.90
2022-12-23T10:59:44.267Z,41.20
2022-12-23T11:02:13.713Z,41.60
2022-12-23T11:04:43.788Z,45.50
2022-12-23T11:07:49.165Z,46.00
2022-12-23T11:10:20.273Z,50.50
2022-12-23T11:12:57.403Z,49.60
2022-12-23T11:15:35.931Z,42.10
2022-12-23T11:18:08.546Z,41.80
2022-12-23T11:20:39.395Z,41.80
2022-12-23T11:23:24.315Z,42.70
2022-12-23T11:26:10.408Z,41.00
2022-12-23T11:28:46.861Z,47.90
2022-12-23T11:31:17.649Z,44.40
2022-12-23T11:34:02.162Z,52.20
2022-12-23T11:36:32.141Z,49.30
2022-12-23T11:39:14.304Z,49.90
2022-12-23T11:41:47.316Z,41.50
2022-12-23T11:44:30.085Z,50.30
2022-12-23T11:47:06.845Z,52.40
2022-12-23T11:49:33.745Z,57.30
2022-12-23T11:52:14.374Z,58.20
2022-12-23T11:54:54.229Z,52.70
2022-12-23T11:57:51.276Z,48.80
2022-12-23T12:00:27.186Z,45.30
2022-12-23T12:03:03.220Z,46.10
2022-12-23T12:05:41.030Z,48.20
2022-12-23T12:08:14.783Z,48.30
2022-12-23T12:11:04.447Z,43.40
2022-12-23T12:13:38.176Z,42.20
2022-12-23T12:16:18.135Z,46.80
2022-12-23T12:18:52.091Z,49.00
2022-12-23T12:21:27.795Z,47.50
2022-12-23T12:24:24.112Z,40.70
2022-12-23T12:26:54.113Z,44.00
2022-12-23T12:29:31.395Z,42.20
2022-12-23T12:32:54.467Z,42.20
2022-12-23T12:35:31.047Z,41.00
2022-12-23T12:38:19.442Z,37.20
2022-12-23T12:40:54.147Z,38.80
2022-12-23T12:43:31.297Z,39.40
2022-12-23T12:46:10.168Z,38.00
2022-12-23T12:48:47.734Z,32.10
2022-12-23T12:51:27.146Z,30.60
2022-12-23T12:54:06.559Z,29.20
2022-12-23T12:56:41.280Z,31.20
2022-12-23T12:59:15.927Z,32.50
2022-12-23T13:01:45.720Z,35.70
2022-12-23T13:04:15.494Z,34.60
2022-12-23T13:07:01.607Z,37.20
2022-12-23T13:09:40.335Z,32.20
2022-12-23T13:12:17.616Z,32.10
2022-12-23T13:15:10.741Z,35.90
2022-12-23T13:18:03.650Z,27.40
2022-12-23T13:21:06.774Z,28.60
2022-12-23T13:24:03.781Z,31.40
2022-12-23T13:27:25.810Z,29.70
2022-12-23T13:30:23.000Z,29.20
2022-12-23T13:33:38.068Z,29.20
2022-12-23T13:36:12.572Z,26.80
2022-12-23T13:39:02.452Z,28.90
2022-12-23T13:41:40.005Z,30.40
2022-12-23T13:44:12.412Z,32.50
2022-12-23T13:46:50.946Z,34.70
2022-12-23T13:49:44.493Z,33.10
2022-12-23T13:52:22.936Z,30.70
2022-12-23T13:54:58.084Z,29.80
2022-12-23T13:57:35.145Z,30.40
2022-12-23T14:00:18.430Z,27.00
2022-12-23T14:03:16.331Z,26.00
2022-12-23T14:05:45.700Z,24.90
2022-12-23T14:08:18.463Z,22.30
2022-12-23T14:11:00.496Z,24.00
2022-12-23T14:13:33.567Z,29.90
2022-12-23T14:16:16.580Z,26.90
2022-12-23T14:19:00.804Z,28.50
2022-12-23T14:21:52.711Z,30.20
2022-12-23T14:24:47.889Z,28.50
2022-12-23T14:27:33.358Z,35.80
2022-12-23T14:30:25.223Z,30.60
2022-12-23T14:32:58.231Z,31.40
2022-12-23T14:35:33.384Z,35.60
2022-12-23T14:38:14.236Z,32.30
2022-12-23T14:40:53.175Z,30.90
2022-12-23T14:43:23.067Z,33.70
2022-12-23T14:45:52.894Z,34.90
2022-12-23T14:48:35.053Z,35.10
2022-12-23T14:51:22.592Z,31.10
2022-12-23T14:53:53.125Z,36.50
2022-12-23T14:56:46.906Z,30.90
2022-12-23T14:59:46.521Z,32.80
2022-12-23T15:02:21.997Z,31.80
2022-12-23T15:04:54.036Z,28.20
2022-12-23T15:07:40.155Z,30.80
2022-12-23T15:10:16.266Z,28.90
2022-12-23T15:12:47.751Z,30.80
2022-12-23T15:15:49.835Z,28.10
2022-12-23T15:18:16.535Z,33.10
2022-12-23T15:20:47.963Z,32.50
2022-12-23T15:23:17.565Z,31.10
2022-12-23T15:25:47.326Z,30.40
2022-12-23T15:30:56.131Z,30.20
2022-12-23T15:36:31.409Z,33.00
2022-12-23T15:39:00.135Z,41.40
2022-12-23T15:41:28.676Z,36.40
2022-12-23T15:44:02.969Z,32.00
2022-12-23T15:46:31.162Z,29.80
2022-12-23T15:49:21.287Z,31.60
2022-12-23T15:52:12.592Z,32.70
2022-12-23T15:54:51.181Z,33.60
2022-12-23T15:57:20.905Z,33.10
2022-12-23T15:59:48.529Z,36.80
2022-12-23T16:05:33.809Z,36.00
2022-12-23T16:08:12.807Z,30.50
2022-12-23T16:10:44.780Z,33.60
2022-12-23T16:13:19.881Z,43.10
2022-12-23T16:15:46.795Z,36.10
2022-12-23T16:18:32.107Z,37.20
2022-12-23T16:21:05.849Z,36.80
2022-12-23T16:23:43.381Z,32.90
2022-12-23T16:26:12.419Z,35.50
2022-12-23T16:28:46.580Z,35.30
2022-12-23T16:31:19.167Z,36.00
2022-12-23T16:33:57.898Z,35.90
2022-12-23T16:36:24.618Z,35.50
2022-12-23T16:39:23.440Z,32.30
2022-12-23T16:41:51.407Z,31.90
2022-12-23T16:44:19.375Z,28.10
2022-12-23T16:46:53.830Z,28.60
2022-12-23T16:49:33.765Z,31.90
2022-12-23T16:52:19.258Z,36.80
2022-12-23T16:54:51.772Z,30.90
2022-12-23T16:57:19.596Z,28.70
2022-12-23T16:59:49.879Z,32.30
2022-12-23T17:02:21.983Z,30.20
2022-12-23T17:04:48.631Z,28.20
2022-12-23T17:07:15.601Z,28.90
2022-12-23T17:09:42.685Z,30.70
2022-12-23T17:12:13.291Z,33.20
2022-12-23T17:14:43.762Z,26.80
2022-12-23T17:17:15.014Z,31.20
2022-12-23T17:19:43.014Z,28.90
2022-12-23T17:22:14.436Z,27.10
2022-12-23T17:24:44.338Z,28.80
2022-12-23T17:27:13.765Z,29.40
2022-12-23T17:29:44.932Z,32.00
2022-12-23T17:32:16.026Z,30.40
2022-12-23T17:34:43.036Z,26.30
2022-12-23T17:37:18.996Z,23.20
2022-12-23T17:39:47.246Z,27.40
2022-12-23T17:42:25.840Z,28.40
2022-12-23T17:44:53.074Z,29.70
2022-12-23T17:47:22.118Z,29.00
2022-12-23T17:49:50.772Z,26.80
2022-12-23T17:52:22.633Z,27.40
2022-12-23T17:54:51.229Z,25.90
2022-12-23T17:57:23.390Z,29.80
2022-12-23T17:59:52.290Z,30.00
2022-12-23T18:02:34.320Z,27.70
2022-12-23T18:05:28.819Z,26.80
2022-12-23T18:07:59.233Z,25.70
2022-12-23T18:10:40.054Z,24.90
2022-12-23T18:13:14.886Z,27.60
2022-12-23T18:16:02.784Z,25.60
2022-12-23T18:18:39.296Z,26.10
2022-12-23T18:21:32.974Z,25.50
2022-12-23T18:24:09.524Z,24.60
2022-12-23T18:26:36.387Z,22.90
2022-12-23T18:29:03.380Z,23.30
2022-12-23T18:31:30.408Z,24.30
2022-12-23T18:34:00.462Z,23.90
2022-12-23T18:36:37.627Z,23.20
2022-12-23T18:39:04.491Z,22.70
2022-12-23T18:41:31.334Z,22.90
2022-12-23T18:43:58.163Z,22.50
2022-12-23T18:46:24.908Z,21.00
2022-12-23T18:48:51.744Z,23.30
2022-12-23T18:51:23.228Z,26.10
2022-12-23T18:53:49.964Z,25.10
2022-12-23T18:56:20.405Z,23.70
2022-12-23T18:58:47.098Z,25.40
2022-12-23T19:01:15.741Z,27.50
2022-12-23T19:03:43.000Z,25.20
2022-12-23T19:06:14.956Z,24.30
2022-12-23T19:08:44.851Z,24.30
2022-12-23T19:11:17.607Z,21.60
2022-12-23T19:13:45.296Z,23.30
2022-12-23T19:16:19.919Z,22.20
2022-12-23T19:18:48.229Z,21.10
2022-12-23T19:21:16.976Z,23.80
2022-12-23T19:23:48.614Z,21.00
2022-12-23T19:26:22.686Z,23.40
2022-12-23T19:28:52.229Z,22.20
2022-12-23T19:31:19.245Z,22.00
2022-12-23T19:33:51.128Z,25.20
2022-12-23T19:36:23.668Z,22.10
2022-12-23T19:38:50.683Z,22.90
2022-12-23T19:41:18.446Z,25.40
2022-12-23T19:43:46.847Z,23.70
2022-12-23T19:46:15.097Z,24.90
2022-12-23T19:48:42.103Z,22.60
2022-12-23T19:51:11.471Z,23.50
2022-12-23T19:53:39.741Z,21.80
2022-12-23T19:56:16.281Z,25.50
2022-12-23T19:58:45.264Z,23.10
2022-12-23T20:01:23.386Z,23.60
2022-12-23T20:03:52.215Z,26.10
2022-12-23T20:06:29.251Z,22.10
2022-12-23T20:09:03.703Z,25.10
2022-12-23T20:14:04.006Z,25.80
2022-12-23T20:16:31.078Z,31.20
2022-12-23T20:18:57.927Z,26.50
2022-12-23T20:21:24.746Z,26.50
2022-12-23T20:23:54.737Z,24.00
2022-12-23T20:26:23.202Z,23.70
2022-12-23T20:28:55.591Z,22.80
2022-12-23T20:31:31.762Z,25.40
2022-12-23T20:34:00.748Z,24.10
2022-12-23T20:36:30.327Z,25.40
2022-12-23T20:38:57.519Z,26.20
2022-12-23T20:41:27.553Z,24.50
2022-12-23T20:44:32.232Z,26.50
2022-12-23T20:46:41.694Z,24.70
2022-12-23T20:49:11.372Z,26.00
2022-12-23T20:51:38.716Z,27.60
2022-12-23T20:54:05.460Z,26.70
2022-12-23T20:56:33.245Z,26.00
2022-12-23T20:59:03.399Z,23.20
2022-12-23T21:01:38.619Z,23.70
2022-12-23T21:04:11.189Z,25.00
2022-12-23T21:06:38.519Z,24.50
2022-12-23T21:09:08.167Z,27.90
2022-12-23T21:11:38.191Z,23.70
2022-12-23T21:14:07.207Z,25.20
2022-12-23T21:16:36.206Z,24.10
2022-12-23T21:19:04.562Z,26.60
2022-12-23T21:21:31.284Z,25.30
2022-12-23T21:24:00.982Z,25.30
2022-12-23T21:26:30.369Z,24.60
2022-12-23T21:28:59.513Z,23.20
2022-12-23T21:31:28.126Z,27.40
2022-12-23T21:33:56.087Z,24.80
2022-12-23T21:36:34.923Z,27.40
2022-12-23T21:39:02.983Z,26.20
2022-12-23T21:41:31.422Z,28.80
2022-12-23T21:43:59.589Z,25.70
2022-12-23T21:46:28.082Z,25.80
2022-12-23T21:48:56.972Z,26.70
2022-12-23T21:51:36.652Z,27.60
2022-12-23T21:54:07.165Z,27.90
2022-12-23T21:56:34.246Z,29.10
2022-12-23T21:59:12.276Z,29.60
2022-12-23T22:01:42.752Z,31.50
2022-12-23T22:04:12.774Z,33.50
2022-12-23T22:06:51.082Z,29.60
2022-12-23T22:09:19.058Z,29.00
2022-12-23T22:11:47.542Z,28.50
2022-12-23T22:14:17.034Z,32.40
2022-12-23T22:16:48.427Z,25.60
2022-12-23T22:19:20.359Z,28.10
2022-12-23T22:21:59.447Z,32.20
2022-12-23T22:24:28.454Z,28.20
2022-12-23T22:26:58.995Z,25.90
2022-12-23T22:29:32.604Z,29.50
2022-12-23T22:32:03.302Z,28.80
2022-12-23T22:37:01.807Z,23.60
2022-12-23T22:39:38.360Z,30.60
2022-12-23T22:42:29.522Z,32.10
2022-12-23T22:45:01.840Z,29.20
2022-12-23T22:47:47.181Z,33.30
2022-12-23T22:50:19.995Z,31.80
2022-12-23T22:52:50.587Z,35.70
2022-12-23T22:57:59.759Z,33.10
2022-12-23T23:00:29.058Z,31.30
2022-12-23T23:02:59.861Z,36.60
2022-12-23T23:05:26.726Z,33.50
2022-12-23T23:08:01.710Z,36.80
2022-12-23T23:10:31.071Z,34.30
2022-12-23T23:13:01.152Z,36.40
2022-12-23T23:15:30.591Z,31.50
2022-12-23T23:17:59.779Z,33.00
2022-12-23T23:20:26.572Z,33.70
2022-12-23T23:22:55.857Z,32.40
2022-12-23T23:25:26.368Z,34.00
2022-12-23T23:27:53.166Z,37.10
2022-12-23T23:30:19.968Z,32.80
2022-12-23T23:32:46.934Z,33.30
2022-12-23T23:35:18.002Z,34.40
2022-12-23T23:37:54.109Z,34.00
2022-12-23T23:40:23.382Z,31.10
2022-12-23T23:42:50.112Z,37.80
2022-12-23T23:45:18.111Z,38.90
2022-12-23T23:47:44.866Z,37.20
2022-12-23T23:50:11.540Z,36.10
2022-12-23T23:52:38.190Z,34.80
2022-12-23T23:55:05.799Z,34.80
2022-12-23T23:57:36.867Z,37.80
